地図

経路データ

SID SEASON NUMBER BASIN SUBBASIN NAME ISO_TIME NATURE LAT LON WMO_WIND WMO_PRES WMO_AGENCY TRACK_TYPE DIST2LAND LANDFALL IFLAG USA_AGENCY USA_ATCF_ID USA_LAT USA_LON USA_RECORD USA_STATUS USA_WIND USA_PRES USA_SSHS USA_R34_NE USA_R34_SE USA_R34_SW USA_R34_NW USA_R50_NE USA_R50_SE USA_R50_SW USA_R50_NW USA_R64_NE USA_R64_SE USA_R64_SW USA_R64_NW USA_POCI USA_ROCI USA_RMW USA_EYE TOKYO_LAT TOKYO_LON TOKYO_GRADE TOKYO_WIND TOKYO_PRES TOKYO_R50_DIR TOKYO_R50_LONG TOKYO_R50_SHORT TOKYO_R30_DIR TOKYO_R30_LONG TOKYO_R30_SHORT TOKYO_LAND CMA_LAT CMA_LON CMA_CAT CMA_WIND CMA_PRES HKO_LAT HKO_LON HKO_CAT HKO_WIND HKO_PRES NEWDELHI_LAT NEWDELHI_LON NEWDELHI_GRADE NEWDELHI_WIND NEWDELHI_PRES NEWDELHI_CI NEWDELHI_DP NEWDELHI_POCI REUNION_LAT REUNION_LON REUNION_TYPE REUNION_WIND REUNION_PRES REUNION_TNUM REUNION_CI REUNION_RMW REUNION_R34_NE REUNION_R34_SE REUNION_R34_SW REUNION_R34_NW REUNION_R50_NE REUNION_R50_SE REUNION_R50_SW REUNION_R50_NW REUNION_R64_NE REUNION_R64_SE REUNION_R64_SW REUNION_R64_NW BOM_LAT BOM_LON BOM_TYPE BOM_WIND BOM_PRES BOM_TNUM BOM_CI BOM_RMW BOM_R34_NE BOM_R34_SE BOM_R34_SW BOM_R34_NW BOM_R50_NE BOM_R50_SE BOM_R50_SW BOM_R50_NW BOM_R64_NE BOM_R64_SE BOM_R64_SW BOM_R64_NW BOM_ROCI BOM_POCI BOM_EYE BOM_POS_METHOD BOM_PRES_METHOD NADI_LAT NADI_LON NADI_CAT NADI_WIND NADI_PRES WELLINGTON_LAT WELLINGTON_LON WELLINGTON_WIND WELLINGTON_PRES DS824_LAT DS824_LON DS824_STAGE DS824_WIND DS824_PRES TD9636_LAT TD9636_LON TD9636_STAGE TD9636_WIND TD9636_PRES TD9635_LAT TD9635_LON TD9635_WIND TD9635_PRES TD9635_ROCI NEUMANN_LAT NEUMANN_LON NEUMANN_CLASS NEUMANN_WIND NEUMANN_PRES MLC_LAT MLC_LON MLC_CLASS MLC_WIND MLC_PRES USA_GUST BOM_GUST BOM_GUST_PER REUNION_GUST REUNION_GUST_PER USA_SEAHGT USA_SEARAD_NE USA_SEARAD_SE USA_SEARAD_SW USA_SEARAD_NW STORM_SPEED STORM_DIR
1927218N17129 1927 35 WP MM NOT_NAMED 1927-08-05 22:00:00 NR 17.4000 129.000 main 629 611 __________O___ -1 17.4000 129.000 7 13 295
1927218N17129 1927 35 WP MM NOT_NAMED 1927-08-06 00:00:00 NR 17.5832 128.596 main 611 580 __________P___ -1 17.5832 128.596 7 13 295
1927218N17129 1927 35 WP MM NOT_NAMED 1927-08-06 03:00:00 NR 17.8635 127.978 main 589 526 __________P___ -1 17.8635 127.978 7 13 296
1927218N17129 1927 35 WP MM NOT_NAMED 1927-08-06 06:00:00 NR 18.1603 127.332 main 526 453 __________P___ -1 18.1603 127.332 7 14 296
1927218N17129 1927 35 WP MM NOT_NAMED 1927-08-06 09:00:00 NR 18.4842 126.642 main 453 432 __________P___ -1 18.4842 126.642 7 15 296
1927218N17129 1927 35 WP MM NOT_NAMED 1927-08-06 10:00:00 NR 18.6000 126.400 main 432 382 __________O___ -1 18.6000 126.400 7 16 297
1927218N17129 1927 35 WP MM NOT_NAMED 1927-08-06 12:00:00 NR 18.8450 125.898 main 382 318 __________P___ -1 18.8450 125.898 7 16 299
1927218N17129 1927 35 WP MM NOT_NAMED 1927-08-06 15:00:00 NR 19.2434 125.156 main 318 273 __________P___ -1 19.2434 125.156 7 16 302
1927218N17129 1927 35 WP MM NOT_NAMED 1927-08-06 18:00:00 NR 19.6756 124.516 main 273 260 __________P___ -1 19.6756 124.516 7 14 312
1927218N17129 1927 35 WP MM NOT_NAMED 1927-08-06 21:00:00 NR 20.1390 124.081 main 268 269 __________P___ -1 20.1390 124.081 7 12 322
1927218N17129 1927 35 WP MM NOT_NAMED 1927-08-06 22:00:00 NR 20.3000 124.000 main 277 277 __________O___ -1 20.3000 124.000 3 10 347
1927218N17129 1927 35 WP MM NOT_NAMED 1927-08-07 00:00:00 NR 20.6340 123.963 main 303 312 __________P___ -1 20.6340 123.963 3 11 8
1927218N17129 1927 35 WP MM NOT_NAMED 1927-08-07 03:00:00 NR 21.1616 124.130 main 339 339 __________P___ -1 21.1616 124.130 3 12 25
1927218N17129 1927 35 WP MM NOT_NAMED 1927-08-07 06:00:00 NR 21.7012 124.485 main 354 350 __________P___ -1 21.7012 124.485 3 13 35
1927218N17129 1927 35 WP MM NOT_NAMED 1927-08-07 09:00:00 NR 22.2300 124.941 main 372 379 __________P___ -1 22.2300 124.941 3 14 39
1927218N17129 1927 35 WP MM NOT_NAMED 1927-08-07 10:00:00 NR 22.4000 125.100 main 387 387 __________O___ -1 22.4000 125.100 4 13 42
1927218N17129 1927 35 WP MM NOT_NAMED 1927-08-07 12:00:00 NR 22.7259 125.427 main 409 412 __________P___ -1 22.7259 125.427 4 14 45
1927218N17129 1927 35 WP MM NOT_NAMED 1927-08-07 15:00:00 NR 23.1956 125.963 main 441 441 __________P___ -1 23.1956 125.963 4 13 46
1927218N17129 1927 35 WP MM NOT_NAMED 1927-08-07 18:00:00 NR 23.6415 126.464 main 477 475 __________P___ -1 23.6415 126.464 4 12 42
1927218N17129 1927 35 WP MM NOT_NAMED 1927-08-07 21:00:00 NR 24.0641 126.828 main 495 495 __________P___ -1 24.0641 126.828 4 10 35
1927218N17129 1927 35 WP MM NOT_NAMED 1927-08-07 22:00:00 NR 24.2000 126.900 main 503 497 __________O___ -1 24.2000 126.900 4 9 14
1927218N17129 1927 35 WP MM NOT_NAMED 1927-08-08 00:00:00 NR 24.4820 126.940 main 497 483 __________P___ -1 24.4820 126.940 4 8 355
1927218N17129 1927 35 WP MM NOT_NAMED 1927-08-08 03:00:00 NR 24.8873 126.836 main 483 463 __________P___ -1 24.8873 126.836 4 9 337
1927218N17129 1927 35 WP MM NOT_NAMED 1927-08-08 06:00:00 NR 25.2627 126.581 main 463 427 __________P___ -1 25.2627 126.581 4 9 322
1927218N17129 1927 35 WP MM NOT_NAMED 1927-08-08 09:00:00 NR 25.5985 126.229 main 427 419 __________P___ -1 25.5985 126.229 4 9 315
1927218N17129 1927 35 WP MM NOT_NAMED 1927-08-08 10:00:00 NR 25.7000 126.100 main 419 394 __________O___ -1 25.7000 126.100 4 9 309
1927218N17129 1927 35 WP MM NOT_NAMED 1927-08-08 12:00:00 NR 25.8862 125.833 main 394 362 __________P___ -1 25.8862 125.833 4 9 305
1927218N17129 1927 35 WP MM NOT_NAMED 1927-08-08 15:00:00 NR 26.1301 125.417 main 362 333 __________P___ -1 26.1301 125.417 4 9 301
1927218N17129 1927 35 WP MM NOT_NAMED 1927-08-08 18:00:00 NR 26.3429 124.986 main 333 301 __________P___ -1 26.3429 124.986 4 9 298
1927218N17129 1927 35 WP MM NOT_NAMED 1927-08-08 21:00:00 NR 26.5371 124.547 main 301 299 __________P___ -1 26.5371 124.547 4 9 296
1927218N17129 1927 35 WP MM NOT_NAMED 1927-08-08 22:00:00 NR 26.6000 124.400 main 299 __________O___ -1 26.6000 124.400 4 9 295

デジタル台風データ・検索

IBTrACS Databaseについて

本データベースは、米国NOAAが公開する1842年以降の世界の熱帯低気圧のベストトラックデータアーカイブInternational Best Track Archive for Climate Stewardship (IBTrACS)を、ウェブで閲覧しやすい形式に変換したものです。

最終更新日:2021-12-03